Tropical Cyclones
[Index]
Main Index Home Page Stock Weather Photos Extreme Storms Discussion Storm News and Storm Chasing Reports Tropical Cyclones / Hurricanes / Typhoons Weather Data and Links Wild Fires / Bushfires Weather Observation Techniques Weather Picture Catalogue Tornado Pictures and Reports Stock Video Footage and DVDs for sale
Season 1981-1982 Tropical Cyclone DAPHNE-FIFI Track Map
Season 1981-1982 Summaries: [BoM-AU] [JTWC-AU] [JTWC-SIO] [JTWC-SPAC] [JTWC-SH]
<<- Previous TC | BoM 1981-1982 Season | Next TC ->>

click for intensity scale information  Lat/long Grid: Show Hide

 Date Labels: Show Hide

Bureau of Meteorology Tropical Cyclone Data

Name: DAPHNE-FIFI
Number: 626 / 198182_07

10 Jan 1982 18:00 UTC to 21 Jan 1982 09:00 UTC

    date/time    lat    long    hPa   cat  kts
1982-01-10 18    7.1    94.0   1006                     
1982-01-11 00    7.0    94.3   1005                     
1982-01-11 06    7.1    94.5   1004                     
1982-01-11 12    7.1    94.7   1003                     
1982-01-11 18    7.3    94.9   1003                     
1982-01-12 00    7.4    95.0   1000                     
1982-01-12 06    7.6    95.1    998                     
1982-01-12 12    7.8    95.1    994    1                
1982-01-12 18    8.1    95.2    994    1                
1982-01-13 00    8.5    95.2    988    1                
1982-01-13 06    8.7    95.2    988    1                
1982-01-13 12    9.0    95.4    988    1                
1982-01-13 18    9.4    95.7    988    1                
1982-01-14 00    9.8    96.0    988    1                
1982-01-14 06   10.3    96.2    990    1                
1982-01-14 12   10.6    96.3    994    1                
1982-01-14 18   10.8    96.3    994    1                
1982-01-15 00   11.2    96.3    994    1                
1982-01-15 06   11.4    96.7    994    1                
1982-01-15 12   11.5    97.1    994    1                
1982-01-15 18   11.6    97.5    992    1                
1982-01-16 00   11.7    97.9    989    1                
1982-01-16 06   11.7    98.5    986    1                
1982-01-16 12   11.7    99.5    986    1                
1982-01-16 18   11.7   100.5    986    1                
1982-01-17 00   11.7   101.4    986    1                
1982-01-17 06   11.7   102.2    988    1                
1982-01-17 12   11.6   102.7    988    1                
1982-01-17 18   11.6   103.3    988    1                
1982-01-18 00   11.5   104.0    988    1                
1982-01-18 06   11.4   104.7    988    1                
1982-01-18 12   11.5   105.4    988    1                
1982-01-18 18   11.8   106.1    990    1                
1982-01-19 00   12.2   106.9    990    1                
1982-01-19 06   12.5   108.0    990    1                
1982-01-19 12   12.8   108.9    990    1                
1982-01-19 18   13.3   110.8    990    1                
1982-01-20 00   14.1   112.8    992    1                
1982-01-20 06   15.6   114.8    994    1                
1982-01-20 12   17.6   117.4    994    1                
1982-01-20 15   18.2   118.3    994    1                
1982-01-20 18   18.6   119.0    994    1                
1982-01-20 21   18.8   119.7    994    1                
1982-01-21 00   19.2   120.1    994    1                
1982-01-21 03   19.5   120.2    995    1                
1982-01-21 06   19.8   120.3    996                     
1982-01-21 09   20.2   120.4    997                     
Winds are 10-min average.

Tropical cyclone tracks developed by Michael Bath using data from the Bureau of Meteorology and Google Maps.


[Australian Severe Weather index] [Copyright Notice] [Email Contacts] [Search This Site] [Privacy Policy]
Document: tropical_cyclone_daphne-fifi.htm Updated: 30 May 2013